Marksville, Louisiana
Current Conditions -  °F | °C
As of 2:53 PM on Wednesday 26 Nov 2014 (Local Time) from KESF Reporting Station
Clear Clear  
Wind Chill: 70°   Ceiling: Unl
Heat Index: 70°   Visibility: 10mi
Dew Point: 36°   Wind: 17mph
Humidity: 29%   Direction: 240°WSW
Pressure: 30.12"   Gusts: 30mph
Location:  31.13°N, 92.06°W
Report Text: KESF 262053Z AUTO 24015G26KT 10SM CLR 21/02 A3012 RMK AO2 PK WND 24027/2007 SLP199 T02110022 55011
Loading
Personal Weather Stations






























Interactive Weather Map New forecast layout! Learn more

10-Day Weather Forecast

Advertisements
Track Severe Weather on mobile